createdAt,value
2022-11-20T00:00:28.645Z,40.90
2022-11-20T00:01:28.652Z,39.30
2022-11-20T00:02:28.639Z,41.70
2022-11-20T00:03:28.618Z,42.80
2022-11-20T00:04:28.602Z,39.80
2022-11-20T00:05:28.598Z,40.70
2022-11-20T00:06:28.616Z,42.60
2022-11-20T00:07:28.604Z,38.30
2022-11-20T00:08:28.595Z,44.20
2022-11-20T00:09:28.563Z,41.00
2022-11-20T00:10:28.556Z,45.10
2022-11-20T00:11:29.567Z,43.40
2022-11-20T00:12:28.538Z,43.50
2022-11-20T00:13:28.528Z,41.30
2022-11-20T00:14:28.537Z,41.00
2022-11-20T00:15:28.509Z,43.40
2022-11-20T00:16:28.509Z,43.00
2022-11-20T00:17:28.492Z,42.00
2022-11-20T00:18:28.491Z,39.60
2022-11-20T00:19:28.470Z,41.30
2022-11-20T00:20:28.450Z,41.30
2022-11-20T00:21:28.476Z,41.30
2022-11-20T00:22:28.459Z,40.90
2022-11-20T00:23:28.453Z,42.40
2022-11-20T00:24:28.422Z,45.60
2022-11-20T00:25:28.417Z,45.20
2022-11-20T00:26:28.414Z,43.90
2022-11-20T00:27:29.397Z,46.20
2022-11-20T00:28:28.395Z,46.90
2022-11-20T00:29:28.383Z,45.00
2022-11-20T00:30:29.379Z,42.40
2022-11-20T00:31:28.392Z,42.20
2022-11-20T00:32:28.406Z,44.20
2022-11-20T00:33:28.347Z,42.10
2022-11-20T00:34:28.337Z,39.10
2022-11-20T00:35:28.364Z,40.40
2022-11-20T00:36:28.323Z,41.50
2022-11-20T00:37:28.305Z,40.10
2022-11-20T00:38:28.299Z,37.00
2022-11-20T00:39:28.294Z,40.50
2022-11-20T00:40:28.281Z,40.20
2022-11-20T00:41:28.296Z,38.20
2022-11-20T00:42:28.264Z,38.60
2022-11-20T00:43:28.280Z,40.60
2022-11-20T00:44:28.238Z,38.30
2022-11-20T00:45:28.243Z,37.60
2022-11-20T00:46:28.253Z,38.40
2022-11-20T00:47:28.221Z,38.80
2022-11-20T00:48:28.218Z,38.50
2022-11-20T00:49:28.204Z,36.70
2022-11-20T00:50:28.219Z,38.40
2022-11-20T00:51:28.207Z,36.80
2022-11-20T00:52:28.170Z,38.90
2022-11-20T00:53:28.174Z,38.40
2022-11-20T00:54:28.159Z,36.70
2022-11-20T00:55:28.162Z,36.60
2022-11-20T00:56:28.159Z,35.10
2022-11-20T00:57:28.132Z,34.80
2022-11-20T00:58:28.135Z,34.10
2022-11-20T00:59:28.117Z,36.00
2022-11-20T01:00:28.098Z,34.90
2022-11-20T01:01:28.150Z,37.70
2022-11-20T01:02:28.091Z,34.80
2022-11-20T01:03:28.084Z,32.50
2022-11-20T01:04:28.103Z,37.10
2022-11-20T01:05:28.065Z,35.90
2022-11-20T01:06:28.069Z,39.20
2022-11-20T01:07:28.081Z,36.90
2022-11-20T01:08:28.059Z,39.10
2022-11-20T01:09:28.025Z,37.40
2022-11-20T01:10:28.019Z,39.00
2022-11-20T01:11:28.020Z,39.60
2022-11-20T01:12:28.064Z,40.40
2022-11-20T01:13:27.987Z,37.90
2022-11-20T01:14:27.978Z,38.10
2022-11-20T01:15:27.962Z,38.50
2022-11-20T01:16:27.980Z,40.00
2022-11-20T01:17:27.949Z,40.90
2022-11-20T01:18:27.949Z,38.10
2022-11-20T01:19:27.932Z,38.60
2022-11-20T01:20:27.912Z,38.50
2022-11-20T01:21:28.926Z,39.90
2022-11-20T01:22:27.909Z,37.20
2022-11-20T01:23:27.893Z,37.70
2022-11-20T01:24:27.888Z,37.50
2022-11-20T01:25:27.874Z,40.10
2022-11-20T01:26:27.885Z,38.90
2022-11-20T01:27:27.852Z,39.20
2022-11-20T01:28:27.854Z,41.00
2022-11-20T01:29:27.834Z,41.60
2022-11-20T01:30:27.820Z,41.80
2022-11-20T01:31:27.842Z,41.30
2022-11-20T01:32:27.815Z,47.30
2022-11-20T01:33:27.802Z,47.00
2022-11-20T01:34:27.790Z,43.50
2022-11-20T01:35:27.784Z,49.00
2022-11-20T01:36:27.800Z,49.70
2022-11-20T01:37:27.783Z,48.50
2022-11-20T01:38:27.750Z,51.30
2022-11-20T01:39:27.751Z,48.10
2022-11-20T01:40:27.739Z,43.70
2022-11-20T01:41:27.782Z,47.20
2022-11-20T01:42:27.717Z,44.30
2022-11-20T01:43:27.707Z,43.40
2022-11-20T01:44:27.698Z,46.70
2022-11-20T01:45:27.696Z,43.60
2022-11-20T01:46:27.791Z,42.60
2022-11-20T01:47:27.686Z,41.10
2022-11-20T01:48:27.659Z,41.60
2022-11-20T01:49:27.655Z,40.40
2022-11-20T01:50:27.640Z,39.80
2022-11-20T01:51:27.628Z,39.30
2022-11-20T01:52:27.644Z,39.80
2022-11-20T01:53:27.659Z,38.60
2022-11-20T01:54:27.598Z,39.60
2022-11-20T01:55:27.647Z,40.90
2022-11-20T01:56:27.588Z,39.40
2022-11-20T01:57:27.652Z,37.00
2022-11-20T01:58:27.567Z,39.60
2022-11-20T01:59:27.554Z,36.60
2022-11-20T02:00:27.564Z,37.60
2022-11-20T02:01:27.576Z,40.70
2022-11-20T02:02:28.547Z,38.50
2022-11-20T02:03:27.534Z,41.30
2022-11-20T02:04:27.514Z,40.00
2022-11-20T02:05:27.504Z,37.60
2022-11-20T02:06:27.483Z,40.40
2022-11-20T02:07:27.563Z,40.20
2022-11-20T02:08:27.473Z,40.20
2022-11-20T02:09:27.461Z,42.30
2022-11-20T02:10:27.450Z,41.10
2022-11-20T02:11:27.439Z,41.00
2022-11-20T02:12:27.452Z,40.50
2022-11-20T02:13:27.418Z,39.70
2022-11-20T02:14:27.420Z,40.90
2022-11-20T02:15:30.221Z,43.20
2022-11-20T02:16:28.395Z,38.50
2022-11-20T02:17:27.426Z,41.10
2022-11-20T02:18:27.368Z,40.00
2022-11-20T02:19:27.361Z,40.40
2022-11-20T02:20:27.358Z,42.80
2022-11-20T02:21:27.348Z,40.10
2022-11-20T02:22:27.358Z,40.30
2022-11-20T02:23:27.336Z,43.50
2022-11-20T02:24:27.322Z,40.90
2022-11-20T02:25:27.305Z,41.70
2022-11-20T02:26:27.293Z,41.10
2022-11-20T02:27:27.313Z,44.80
2022-11-20T02:28:27.280Z,43.60
2022-11-20T02:29:27.279Z,45.30
2022-11-20T02:30:27.254Z,47.90
2022-11-20T02:31:27.256Z,46.50
2022-11-20T02:32:27.294Z,47.40
2022-11-20T02:33:27.239Z,49.80
2022-11-20T02:34:27.229Z,50.10
2022-11-20T02:35:27.219Z,47.30
2022-11-20T02:36:27.208Z,49.10
2022-11-20T02:37:28.220Z,49.90
2022-11-20T02:38:27.181Z,49.50
2022-11-20T02:39:27.184Z,50.90
2022-11-20T02:40:27.174Z,56.00
2022-11-20T02:41:27.159Z,52.90
2022-11-20T02:42:27.164Z,54.10
2022-11-20T02:43:27.168Z,53.20
2022-11-20T02:44:27.136Z,58.80
2022-11-20T02:45:27.131Z,57.00
2022-11-20T02:46:27.117Z,52.70
2022-11-20T02:47:27.124Z,57.90
2022-11-20T02:48:30.123Z,55.90
2022-11-20T02:49:28.091Z,59.50
2022-11-20T02:50:27.074Z,57.60
2022-11-20T02:51:27.075Z,58.60
2022-11-20T02:52:27.081Z,55.80
2022-11-20T02:53:27.055Z,57.60
2022-11-20T02:54:27.037Z,57.40
2022-11-20T02:55:27.036Z,55.80
2022-11-20T02:56:27.044Z,57.30
2022-11-20T02:57:27.039Z,59.40
2022-11-20T02:58:26.999Z,62.80
2022-11-20T02:59:27.007Z,62.20
2022-11-20T03:00:26.998Z,60.70
2022-11-20T03:01:27.015Z,60.90
2022-11-20T03:02:26.982Z,57.80
2022-11-20T03:03:26.967Z,58.60
2022-11-20T03:04:26.959Z,57.70
2022-11-20T03:05:26.948Z,60.30
2022-11-20T03:06:26.940Z,62.80
2022-11-20T03:07:26.952Z,57.60
2022-11-20T03:08:26.907Z,57.20
2022-11-20T03:09:27.902Z,57.40
2022-11-20T03:10:26.902Z,57.50
2022-11-20T03:11:26.883Z,56.70
2022-11-20T03:12:26.898Z,58.00
2022-11-20T03:13:26.872Z,53.40
2022-11-20T03:14:26.859Z,53.40
2022-11-20T03:15:26.852Z,55.60
2022-11-20T03:16:26.845Z,54.10
2022-11-20T03:17:26.848Z,53.20
2022-11-20T03:18:26.826Z,56.10
2022-11-20T03:19:26.832Z,53.70
2022-11-20T03:20:26.801Z,50.50
2022-11-20T03:21:26.794Z,52.90
2022-11-20T03:22:26.802Z,52.10
2022-11-20T03:23:26.776Z,50.80
2022-11-20T03:24:26.767Z,51.50
2022-11-20T03:25:26.753Z,48.90
2022-11-20T03:26:26.733Z,53.10
2022-11-20T03:27:26.763Z,52.80
2022-11-20T03:28:26.726Z,50.40
2022-11-20T03:29:26.720Z,53.20
2022-11-20T03:30:30.507Z,55.10
2022-11-20T03:31:26.708Z,54.60
2022-11-20T03:32:26.712Z,54.10
2022-11-20T03:33:26.680Z,52.50
2022-11-20T03:34:26.676Z,53.00
2022-11-20T03:35:26.667Z,55.70
2022-11-20T03:36:26.652Z,57.70
2022-11-20T03:37:26.664Z,59.40
2022-11-20T03:38:26.643Z,60.50
2022-11-20T03:39:26.661Z,65.80
2022-11-20T03:40:26.610Z,58.50
2022-11-20T03:41:26.650Z,60.80
2022-11-20T03:42:26.616Z,58.70
2022-11-20T03:43:26.598Z,58.50
2022-11-20T03:44:26.576Z,59.00
2022-11-20T03:45:26.582Z,59.60
2022-11-20T03:46:26.550Z,60.10
2022-11-20T03:47:26.562Z,56.90
2022-11-20T03:48:26.537Z,55.20
2022-11-20T03:49:26.526Z,53.60
2022-11-20T03:50:26.520Z,60.30
2022-11-20T03:51:26.516Z,53.40
2022-11-20T03:52:26.523Z,51.50
2022-11-20T03:53:26.500Z,53.00
2022-11-20T03:54:26.503Z,50.90
2022-11-20T03:55:26.475Z,51.00
2022-11-20T03:56:26.468Z,49.30
2022-11-20T03:57:26.468Z,48.20
2022-11-20T03:58:26.436Z,50.80
2022-11-20T03:59:26.438Z,46.80
2022-11-20T04:00:26.426Z,46.20
2022-11-20T04:01:26.465Z,49.80
2022-11-20T04:02:26.417Z,49.40
2022-11-20T04:03:26.402Z,48.70
2022-11-20T04:04:26.384Z,50.80
2022-11-20T04:05:26.423Z,48.70
2022-11-20T04:06:26.383Z,48.90
2022-11-20T04:07:26.481Z,50.30
2022-11-20T04:08:26.340Z,47.70
2022-11-20T04:09:27.342Z,49.60
2022-11-20T04:10:26.319Z,48.70
2022-11-20T04:11:26.327Z,50.90
2022-11-20T04:12:26.340Z,52.50
2022-11-20T04:13:26.336Z,51.80
2022-11-20T04:14:26.286Z,50.50
2022-11-20T04:15:26.286Z,53.10
2022-11-20T04:16:26.275Z,50.70
2022-11-20T04:17:26.303Z,52.20
2022-11-20T04:18:26.254Z,52.50
2022-11-20T04:19:26.268Z,51.60
2022-11-20T04:20:26.242Z,53.40
2022-11-20T04:21:26.235Z,50.80
2022-11-20T04:22:26.236Z,53.10
2022-11-20T04:23:28.843Z,48.00
2022-11-20T04:24:27.209Z,49.80
2022-11-20T04:25:26.199Z,50.30
2022-11-20T04:26:26.190Z,48.50
2022-11-20T04:27:26.204Z,53.50
2022-11-20T04:28:26.164Z,45.60
2022-11-20T04:29:26.149Z,44.30
2022-11-20T04:30:26.149Z,45.90
2022-11-20T04:31:26.140Z,45.50
2022-11-20T04:32:26.150Z,45.40
2022-11-20T04:33:27.946Z,45.60
2022-11-20T04:34:26.115Z,44.40
2022-11-20T04:35:26.107Z,44.00
2022-11-20T04:36:26.102Z,43.30
2022-11-20T04:37:26.129Z,44.30
2022-11-20T04:38:26.069Z,44.70
2022-11-20T04:39:26.069Z,41.60
2022-11-20T04:40:26.060Z,44.10
2022-11-20T04:41:26.040Z,44.70
2022-11-20T04:42:26.071Z,45.80
2022-11-20T04:43:26.033Z,42.20
2022-11-20T04:44:26.020Z,42.60
2022-11-20T04:45:26.008Z,43.90
2022-11-20T04:46:26.016Z,46.40
2022-11-20T04:47:26.006Z,45.50
2022-11-20T04:48:25.984Z,43.60
2022-11-20T04:49:25.993Z,45.40
2022-11-20T04:50:25.967Z,49.20
2022-11-20T04:51:25.953Z,48.40
2022-11-20T04:52:25.972Z,46.70
2022-11-20T04:53:25.944Z,49.50
2022-11-20T04:54:25.928Z,50.00
2022-11-20T04:55:25.921Z,50.80
2022-11-20T04:56:25.905Z,53.10
2022-11-20T04:57:25.915Z,54.20
2022-11-20T04:58:25.891Z,56.60
2022-11-20T04:59:25.882Z,57.10
2022-11-20T05:00:25.876Z,59.20
2022-11-20T05:01:25.917Z,59.90
2022-11-20T05:02:25.872Z,58.20
2022-11-20T05:03:25.846Z,66.60
2022-11-20T05:04:25.831Z,64.80
2022-11-20T05:05:25.819Z,62.50
2022-11-20T05:06:25.814Z,61.50
2022-11-20T05:07:25.834Z,56.80
2022-11-20T05:08:25.830Z,57.30
2022-11-20T05:09:25.790Z,55.30
2022-11-20T05:10:25.786Z,56.40
2022-11-20T05:11:25.829Z,59.10
2022-11-20T05:12:25.759Z,55.00
2022-11-20T05:13:25.776Z,54.40
2022-11-20T05:14:25.750Z,57.90
2022-11-20T05:15:25.723Z,67.60
2022-11-20T05:16:26.728Z,63.00
2022-11-20T05:17:25.715Z,65.90
2022-11-20T05:18:25.730Z,70.00
2022-11-20T05:19:25.693Z,71.10
2022-11-20T05:20:25.694Z,66.70
2022-11-20T05:21:25.666Z,75.30
2022-11-20T05:22:25.668Z,66.60
2022-11-20T05:23:25.674Z,61.90
2022-11-20T05:24:25.632Z,60.10
2022-11-20T05:25:25.639Z,60.00
2022-11-20T05:26:25.628Z,55.90
2022-11-20T05:27:25.614Z,59.80
2022-11-20T05:28:25.626Z,55.30
2022-11-20T05:29:25.602Z,55.30
2022-11-20T05:30:25.597Z,55.60
2022-11-20T05:31:27.933Z,60.70
2022-11-20T05:32:26.568Z,58.60
2022-11-20T05:33:25.587Z,58.40
2022-11-20T05:34:25.553Z,58.80
2022-11-20T05:35:25.552Z,61.40
2022-11-20T05:36:25.539Z,57.10
2022-11-20T05:37:25.540Z,58.00
2022-11-20T05:38:25.555Z,60.30
2022-11-20T05:39:25.516Z,58.30
2022-11-20T05:40:25.501Z,60.00
2022-11-20T05:41:25.497Z,58.30
2022-11-20T05:42:25.485Z,60.70
2022-11-20T05:43:25.503Z,56.00
2022-11-20T05:44:25.471Z,54.90
2022-11-20T05:45:25.463Z,57.50
2022-11-20T05:46:28.664Z,56.20
2022-11-20T05:47:37.476Z,57.30
2022-11-20T05:48:25.451Z,55.30
2022-11-20T05:49:25.427Z,56.70
2022-11-20T05:50:25.421Z,54.00
2022-11-20T05:51:25.405Z,56.10
2022-11-20T05:52:25.404Z,54.60
2022-11-20T05:53:27.632Z,57.00
2022-11-20T05:54:26.375Z,56.10
2022-11-20T05:55:25.361Z,57.50
2022-11-20T05:56:25.353Z,56.30
2022-11-20T05:57:25.354Z,56.10
2022-11-20T05:58:25.394Z,54.00
2022-11-20T05:59:25.326Z,54.50
2022-11-20T06:00:25.328Z,51.30
2022-11-20T06:01:25.315Z,50.70
2022-11-20T06:02:25.339Z,54.80
2022-11-20T06:03:25.334Z,53.30
2022-11-20T06:04:25.288Z,52.00
2022-11-20T06:05:25.280Z,55.40
2022-11-20T06:06:25.257Z,49.30
2022-11-20T06:07:25.286Z,48.90
2022-11-20T06:08:25.269Z,51.30
2022-11-20T06:09:25.240Z,48.60
2022-11-20T06:10:25.229Z,49.80
2022-11-20T06:11:25.218Z,50.30
2022-11-20T06:12:25.209Z,48.60
2022-11-20T06:13:25.234Z,50.50
2022-11-20T06:14:25.197Z,50.10
2022-11-20T06:15:25.188Z,48.40
2022-11-20T06:16:25.183Z,49.20
2022-11-20T06:17:25.178Z,49.70
2022-11-20T06:18:25.181Z,50.20
2022-11-20T06:19:25.142Z,48.40
2022-11-20T06:20:25.138Z,50.70
2022-11-20T06:21:25.132Z,50.20
2022-11-20T06:22:25.134Z,53.60
2022-11-20T06:23:25.162Z,51.90
2022-11-20T06:24:25.108Z,53.20
2022-11-20T06:25:25.089Z,55.40
2022-11-20T06:26:25.089Z,53.80
2022-11-20T06:27:25.082Z,51.60
2022-11-20T06:28:25.091Z,53.10
2022-11-20T06:29:28.873Z,54.00
2022-11-20T06:30:27.049Z,53.90
2022-11-20T06:31:25.043Z,53.90
2022-11-20T06:32:25.034Z,52.30
2022-11-20T06:33:25.040Z,54.60
2022-11-20T06:34:25.015Z,55.80
2022-11-20T06:35:25.008Z,53.30
2022-11-20T06:36:24.997Z,57.30
2022-11-20T06:37:24.989Z,60.00
2022-11-20T06:38:25.003Z,58.00
2022-11-20T06:39:25.093Z,59.90
2022-11-20T06:40:24.964Z,58.80
2022-11-20T06:41:24.957Z,58.90
2022-11-20T06:42:24.954Z,58.80
2022-11-20T06:43:24.962Z,60.20
2022-11-20T06:44:24.925Z,63.70
2022-11-20T06:45:24.919Z,64.30
2022-11-20T06:46:24.911Z,58.30
2022-11-20T06:47:24.894Z,56.00
2022-11-20T06:48:24.914Z,61.20
2022-11-20T06:49:25.229Z,66.90
2022-11-20T06:50:24.879Z,67.80
2022-11-20T06:51:24.859Z,66.20
2022-11-20T06:52:24.861Z,59.50
2022-11-20T06:53:24.873Z,72.80
2022-11-20T06:54:24.847Z,65.10
2022-11-20T06:55:24.817Z,63.50
2022-11-20T06:56:24.829Z,60.80
2022-11-20T06:57:24.820Z,61.50
2022-11-20T06:58:24.825Z,59.00
2022-11-20T06:59:24.859Z,62.40
2022-11-20T07:00:24.790Z,62.80
2022-11-20T07:01:24.832Z,55.20
2022-11-20T07:02:24.769Z,61.60
2022-11-20T07:03:24.775Z,66.90
2022-11-20T07:04:24.768Z,76.80
2022-11-20T07:05:24.749Z,75.80
2022-11-20T07:06:24.742Z,70.00
2022-11-20T07:07:24.773Z,71.80
2022-11-20T07:08:24.738Z,82.30
2022-11-20T07:09:25.131Z,63.50
2022-11-20T07:10:24.707Z,75.00
2022-11-20T07:11:24.695Z,67.90
2022-11-20T07:12:24.721Z,109.20
2022-11-20T07:13:24.700Z,69.40
2022-11-20T07:14:24.669Z,76.40
2022-11-20T07:15:24.654Z,76.30
2022-11-20T07:16:24.655Z,82.80
2022-11-20T07:17:24.649Z,91.50
2022-11-20T07:18:24.656Z,80.10
2022-11-20T07:19:24.614Z,84.30
2022-11-20T07:20:24.618Z,88.40
2022-11-20T07:21:24.609Z,78.30
2022-11-20T07:22:24.601Z,71.30
2022-11-20T07:23:24.603Z,65.90
2022-11-20T07:24:24.595Z,67.60
2022-11-20T07:25:24.575Z,68.60
2022-11-20T07:26:24.578Z,65.80
2022-11-20T07:27:24.559Z,66.20
2022-11-20T07:28:24.567Z,68.90
2022-11-20T07:29:24.540Z,56.10
2022-11-20T07:30:24.525Z,60.40
2022-11-20T07:31:24.516Z,62.70
2022-11-20T07:32:24.511Z,66.60
2022-11-20T07:33:24.531Z,59.60
2022-11-20T07:34:24.501Z,61.50
2022-11-20T07:35:24.482Z,64.60
2022-11-20T07:36:24.483Z,57.70
2022-11-20T07:37:24.478Z,59.20
2022-11-20T07:38:24.493Z,67.90
2022-11-20T07:39:24.448Z,64.00
2022-11-20T07:40:24.449Z,75.80
2022-11-20T07:41:24.441Z,65.00
2022-11-20T07:42:24.428Z,55.80
2022-11-20T07:43:24.436Z,53.90
2022-11-20T07:44:24.423Z,55.80
2022-11-20T07:45:24.410Z,57.30
2022-11-20T07:46:24.401Z,54.00
2022-11-20T07:47:24.403Z,53.60
2022-11-20T07:48:24.400Z,52.00
2022-11-20T07:49:24.535Z,49.20
2022-11-20T07:50:25.365Z,56.60
2022-11-20T07:51:24.355Z,48.40
2022-11-20T07:52:24.344Z,46.70
2022-11-20T07:53:24.374Z,49.40
2022-11-20T07:54:24.325Z,50.30
2022-11-20T07:55:24.314Z,47.80
2022-11-20T07:56:24.311Z,48.70
2022-11-20T07:57:28.168Z,52.50
2022-11-20T07:58:25.320Z,50.50
2022-11-20T07:59:24.481Z,46.60
2022-11-20T08:00:24.283Z,53.40
2022-11-20T08:01:24.289Z,52.10
2022-11-20T08:02:24.267Z,54.10
2022-11-20T08:03:25.208Z,52.40
2022-11-20T08:04:25.261Z,57.00
2022-11-20T08:05:24.222Z,51.20
2022-11-20T08:06:24.226Z,56.30
2022-11-20T08:07:24.245Z,57.10
2022-11-20T08:08:24.211Z,59.30
2022-11-20T08:09:24.218Z,52.70
2022-11-20T08:10:24.207Z,51.90
2022-11-20T08:11:24.175Z,56.80
2022-11-20T08:12:24.167Z,55.90
2022-11-20T08:13:24.166Z,48.40
2022-11-20T08:14:24.201Z,53.60
2022-11-20T08:15:24.147Z,51.40
2022-11-20T08:16:24.148Z,50.90
2022-11-20T08:17:24.134Z,52.80
2022-11-20T08:18:31.114Z,50.40
2022-11-20T08:19:26.123Z,51.30
2022-11-20T08:20:24.198Z,50.60
2022-11-20T08:21:24.092Z,45.90
2022-11-20T08:22:24.080Z,49.10
2022-11-20T08:23:24.075Z,50.00
2022-11-20T08:24:24.093Z,47.20
2022-11-20T08:25:24.059Z,51.40
2022-11-20T08:26:24.045Z,46.40
2022-11-20T08:27:24.023Z,48.70
2022-11-20T08:28:24.045Z,49.20
2022-11-20T08:29:24.357Z,53.70
2022-11-20T08:30:24.064Z,54.30
2022-11-20T08:31:23.998Z,58.30
2022-11-20T08:32:23.994Z,54.10
2022-11-20T08:33:23.980Z,57.00
2022-11-20T08:34:23.991Z,60.70
2022-11-20T08:35:23.953Z,57.80
2022-11-20T08:36:23.951Z,56.80
2022-11-20T08:37:23.947Z,60.30
2022-11-20T08:38:23.975Z,56.80
2022-11-20T08:39:24.263Z,58.60
2022-11-20T08:40:23.959Z,60.00
2022-11-20T08:41:23.897Z,56.20
2022-11-20T08:42:23.899Z,55.50
2022-11-20T08:43:23.877Z,56.60
2022-11-20T08:44:23.902Z,55.50
2022-11-20T08:45:23.873Z,62.10
2022-11-20T08:46:23.869Z,59.60
2022-11-20T08:47:23.858Z,56.50
2022-11-20T08:48:23.911Z,55.20
2022-11-20T08:49:24.169Z,59.20
2022-11-20T08:50:23.949Z,59.20
2022-11-20T08:51:23.823Z,57.20
2022-11-20T08:52:23.815Z,53.50
2022-11-20T08:53:23.807Z,59.20
2022-11-20T08:54:23.802Z,69.20
2022-11-20T08:55:23.784Z,64.80
2022-11-20T08:56:23.786Z,64.50
2022-11-20T08:57:23.774Z,65.10
2022-11-20T08:58:23.775Z,69.10
2022-11-20T08:59:43.783Z,62.50
2022-11-20T09:00:25.746Z,65.50
2022-11-20T09:01:23.799Z,67.90
2022-11-20T09:02:23.721Z,72.40
2022-11-20T09:03:27.413Z,84.10
2022-11-20T09:04:24.737Z,76.20
2022-11-20T09:05:23.698Z,79.60
2022-11-20T09:06:23.688Z,61.50
2022-11-20T09:07:23.740Z,68.60
2022-11-20T09:08:23.675Z,74.60
2022-11-20T09:09:24.032Z,61.90
2022-11-20T09:10:24.892Z,65.20
2022-11-20T09:11:23.764Z,63.90
2022-11-20T09:12:23.627Z,67.70
2022-11-20T09:13:23.635Z,71.40
2022-11-20T09:14:23.626Z,79.30
2022-11-20T09:15:23.614Z,113.60
2022-11-20T09:16:23.594Z,90.50
2022-11-20T09:17:23.588Z,133.00
2022-11-20T09:18:23.566Z,469.20
2022-11-20T09:19:39.015Z,331.80
2022-11-20T09:20:25.617Z,792.80
2022-11-20T09:21:23.615Z,208.80
2022-11-20T09:22:23.541Z,266.00
2022-11-20T09:23:23.531Z,108.10
2022-11-20T09:24:23.564Z,118.10
2022-11-20T09:25:23.511Z,156.80
2022-11-20T09:26:23.486Z,75.90
2022-11-20T09:27:23.494Z,130.70
2022-11-20T09:28:23.492Z,100.10
2022-11-20T09:29:23.728Z,138.50
2022-11-20T09:30:23.468Z,81.40
2022-11-20T09:31:23.462Z,64.10
2022-11-20T09:32:23.447Z,80.70
2022-11-20T09:33:23.448Z,55.40
2022-11-20T09:34:23.437Z,55.60
2022-11-20T09:35:23.428Z,57.40
2022-11-20T09:36:23.408Z,66.60
2022-11-20T09:37:23.400Z,77.90
2022-11-20T09:38:23.394Z,54.60
2022-11-20T09:39:23.961Z,51.30
2022-11-20T09:40:23.375Z,58.20
2022-11-20T09:41:23.360Z,60.00
2022-11-20T09:42:23.357Z,81.20
2022-11-20T09:43:23.347Z,62.20
2022-11-20T09:44:23.355Z,71.00
2022-11-20T09:45:23.321Z,53.50
2022-11-20T09:46:23.314Z,95.70
2022-11-20T09:47:23.309Z,88.00
2022-11-20T09:48:23.298Z,302.20
2022-11-20T09:49:27.560Z,124.70
2022-11-20T09:50:24.269Z,71.20
2022-11-20T09:51:23.269Z,93.50
2022-11-20T09:52:23.251Z,337.50
2022-11-20T09:53:23.234Z,496.70
2022-11-20T09:54:23.258Z,575.10
2022-11-20T09:55:23.224Z,346.40
2022-11-20T09:56:23.264Z,130.80
2022-11-20T09:57:23.189Z,281.80
2022-11-20T09:58:23.222Z,203.60
2022-11-20T09:59:23.555Z,393.90
2022-11-20T10:00:23.171Z,310.90
2022-11-20T10:01:23.365Z,508.30
2022-11-20T10:02:23.162Z,300.30
2022-11-20T10:03:23.142Z,93.70
2022-11-20T10:04:23.152Z,238.80
2022-11-20T10:05:23.126Z,126.50
2022-11-20T10:06:23.117Z,105.30
2022-11-20T10:07:32.252Z,81.10
2022-11-20T10:08:25.132Z,106.00
2022-11-20T10:09:23.477Z,69.00
2022-11-20T10:10:23.078Z,70.90
2022-11-20T10:11:23.059Z,84.00
2022-11-20T10:12:23.058Z,64.30
2022-11-20T10:13:23.041Z,68.10
2022-11-20T10:14:23.054Z,59.40
2022-11-20T10:15:23.030Z,58.90
2022-11-20T10:16:23.022Z,58.00
2022-11-20T10:17:23.003Z,54.20
2022-11-20T10:18:22.993Z,56.90
2022-11-20T10:19:23.294Z,59.70
2022-11-20T10:20:22.973Z,57.60
2022-11-20T10:21:22.960Z,56.30
2022-11-20T10:22:22.983Z,53.80
2022-11-20T10:23:25.957Z,53.70
2022-11-20T10:24:23.950Z,49.60
2022-11-20T10:25:22.928Z,49.30
2022-11-20T10:26:22.913Z,49.80
2022-11-20T10:27:22.911Z,47.80
2022-11-20T10:28:22.890Z,54.60
2022-11-20T10:29:24.120Z,48.40
2022-11-20T10:30:22.870Z,50.00
2022-11-20T10:31:22.868Z,53.10
2022-11-20T10:32:22.877Z,57.90
2022-11-20T10:33:22.854Z,58.60
2022-11-20T10:34:23.429Z,59.10
2022-11-20T10:35:23.824Z,55.90
2022-11-20T10:36:22.815Z,54.10
2022-11-20T10:37:22.790Z,55.90
2022-11-20T10:38:22.846Z,56.00
2022-11-20T10:39:24.204Z,59.20
2022-11-20T10:40:22.773Z,58.50
2022-11-20T10:41:22.766Z,54.00
2022-11-20T10:42:22.754Z,56.00
2022-11-20T10:43:22.746Z,57.60
2022-11-20T10:44:22.926Z,60.80
2022-11-20T10:45:22.711Z,56.60
2022-11-20T10:46:22.708Z,58.90
2022-11-20T10:47:22.713Z,52.40
2022-11-20T10:48:22.695Z,65.20
2022-11-20T10:49:23.102Z,64.70
2022-11-20T10:50:22.987Z,68.00
2022-11-20T10:51:22.660Z,74.50
2022-11-20T10:52:22.648Z,64.90
2022-11-20T10:53:22.631Z,65.50
2022-11-20T10:54:22.649Z,62.70
2022-11-20T10:55:22.614Z,64.50
2022-11-20T10:56:22.620Z,59.50
2022-11-20T10:57:22.600Z,61.40
2022-11-20T10:58:22.588Z,67.30
2022-11-20T10:59:22.841Z,108.80
2022-11-20T11:00:22.568Z,74.50
2022-11-20T11:01:22.639Z,89.10
2022-11-20T11:02:22.550Z,74.30
2022-11-20T11:03:22.533Z,82.50
2022-11-20T11:04:22.551Z,95.60
2022-11-20T11:05:22.508Z,88.50
2022-11-20T11:06:22.507Z,78.60
2022-11-20T11:07:22.587Z,162.60
2022-11-20T11:08:22.490Z,363.00
2022-11-20T11:09:22.746Z,121.60
2022-11-20T11:10:22.465Z,119.80
2022-11-20T11:11:22.462Z,84.10
2022-11-20T11:12:22.447Z,111.70
2022-11-20T11:13:22.443Z,210.90
2022-11-20T11:14:22.450Z,225.90
2022-11-20T11:15:22.419Z,314.70
2022-11-20T11:16:22.407Z,188.20
2022-11-20T11:17:23.385Z,123.70
2022-11-20T11:18:22.419Z,65.10
2022-11-20T11:19:22.720Z,121.00
2022-11-20T11:20:22.388Z,174.00
2022-11-20T11:21:22.361Z,67.30
2022-11-20T11:22:22.353Z,88.20
2022-11-20T11:23:22.359Z,74.60
2022-11-20T11:24:40.960Z,69.70
2022-11-20T11:25:24.344Z,63.40
2022-11-20T11:26:22.329Z,67.40
2022-11-20T11:27:22.299Z,66.40
2022-11-20T11:28:22.305Z,64.80
2022-11-20T11:29:22.657Z,68.30
2022-11-20T11:30:22.295Z,60.40
2022-11-20T11:31:22.265Z,78.10
2022-11-20T11:32:22.259Z,63.50
2022-11-20T11:33:22.240Z,60.40
2022-11-20T11:34:22.249Z,65.70
2022-11-20T11:35:22.249Z,67.30
2022-11-20T11:36:22.219Z,65.20
2022-11-20T11:37:22.210Z,66.30
2022-11-20T11:38:22.196Z,63.30
2022-11-20T11:39:22.644Z,65.00
2022-11-20T11:40:24.576Z,59.10
2022-11-20T11:41:23.156Z,58.70
2022-11-20T11:42:22.163Z,59.50
2022-11-20T11:43:22.155Z,55.60
2022-11-20T11:44:22.160Z,55.60
2022-11-20T11:45:22.153Z,57.50
2022-11-20T11:46:22.128Z,68.20
2022-11-20T11:47:22.117Z,57.80
2022-11-20T11:48:50.680Z,70.90
2022-11-20T11:49:22.374Z,90.50
2022-11-20T11:50:22.110Z,73.50
2022-11-20T11:51:22.075Z,66.10
2022-11-20T11:52:22.066Z,68.00
2022-11-20T11:53:22.060Z,59.00
2022-11-20T11:54:22.053Z,57.80
2022-11-20T11:55:22.065Z,59.40
2022-11-20T11:56:22.032Z,57.50
2022-11-20T11:57:22.024Z,59.80
2022-11-20T11:58:22.016Z,59.90
2022-11-20T11:59:22.211Z,65.10
2022-11-20T12:00:22.009Z,60.20
2022-11-20T12:01:21.991Z,63.40
2022-11-20T12:02:21.994Z,61.30
2022-11-20T12:03:21.971Z,61.60
2022-11-20T12:04:21.957Z,60.50
2022-11-20T12:05:21.968Z,56.80
2022-11-20T12:06:21.945Z,59.60
2022-11-20T12:07:45.521Z,56.90
2022-11-20T12:08:23.962Z,61.10
2022-11-20T12:09:22.361Z,57.80
2022-11-20T12:10:21.927Z,57.50
2022-11-20T12:11:21.888Z,59.90
2022-11-20T12:12:21.883Z,61.10
2022-11-20T12:13:21.877Z,60.00
2022-11-20T12:14:21.869Z,70.30
2022-11-20T12:15:21.876Z,66.50
2022-11-20T12:16:21.853Z,67.80
2022-11-20T12:17:21.841Z,66.00
2022-11-20T12:18:21.825Z,62.20
2022-11-20T12:19:22.165Z,65.60
2022-11-20T12:20:21.825Z,64.40
2022-11-20T12:21:21.801Z,63.30
2022-11-20T12:22:21.795Z,63.20
2022-11-20T12:23:21.785Z,60.40
2022-11-20T12:24:21.776Z,61.30
2022-11-20T12:25:21.785Z,60.40
2022-11-20T12:26:21.753Z,58.20
2022-11-20T12:27:21.747Z,57.50
2022-11-20T12:28:21.730Z,55.10
2022-11-20T12:29:22.006Z,54.90
2022-11-20T12:30:21.730Z,51.80
2022-11-20T12:31:21.723Z,46.30
2022-11-20T12:32:21.707Z,35.20
2022-11-20T12:33:21.690Z,36.60
2022-11-20T12:34:21.678Z,40.00
2022-11-20T12:35:21.694Z,38.00
2022-11-20T12:36:21.661Z,39.40
2022-11-20T12:37:21.659Z,41.00
2022-11-20T12:38:21.634Z,37.60
2022-11-20T12:39:22.021Z,34.90
2022-11-20T12:40:21.637Z,36.80
2022-11-20T12:41:21.606Z,35.50
2022-11-20T12:42:21.604Z,33.60
2022-11-20T12:43:21.601Z,37.00
2022-11-20T12:44:21.587Z,36.20
2022-11-20T12:45:21.617Z,37.20
2022-11-20T12:46:21.578Z,36.60
2022-11-20T12:47:21.561Z,38.30
2022-11-20T12:48:21.537Z,35.60
2022-11-20T12:49:21.891Z,35.90
2022-11-20T12:50:21.547Z,39.00
2022-11-20T12:51:21.510Z,36.30